Time;durP1;ratioP1;P1;durP2;ratioP2;P2;SDS_P1;SDS_P2;PMS_P1;PMS_P2;Temp;Humidity;BMP_temperature;BMP_pressure;BME280_temperature;BME280_humidity;BME280_pressure;Samples;Min_cycle;Max_cycle;Signal;HPM_P1;HPM_P2
2022/09/21 00:00:44;;;;;;;9.80;5.50;;;;;;;9.77;100.00;102548.81;5010309;28;20051;-90
2022/09/21 00:03:13;;;;;;;8.57;5.00;;;;;;;9.65;100.00;102544.09;4991448;28;20387;-89
2022/09/21 00:05:38;;;;;;;8.10;5.03;;;;;;;9.63;100.00;102540.69;4992800;28;20087;-90
2022/09/21 00:08:05;;;;;;;7.40;5.28;;;;;;;9.53;100.00;102545.47;5025175;28;20033;-90
2022/09/21 00:10:31;;;;;;;10.95;5.25;;;;;;;9.48;100.00;102544.81;5029010;28;20041;-90
2022/09/21 00:12:58;;;;;;;7.75;5.22;;;;;;;9.43;100.00;102549.41;5008426;28;20037;-92
2022/09/21 00:15:24;;;;;;;6.30;5.10;;;;;;;9.35;100.00;102549.72;5009980;28;20056;-91
2022/09/21 00:17:53;;;;;;;8.55;5.05;;;;;;;9.28;100.00;102545.66;5009195;28;20390;-91
2022/09/21 00:20:19;;;;;;;8.60;4.78;;;;;;;9.28;100.00;102552.69;5019167;28;20027;-91
2022/09/21 00:22:45;;;;;;;9.10;5.50;;;;;;;9.25;100.00;102552.81;5011990;28;20112;-91
2022/09/21 00:25:11;;;;;;;7.35;5.22;;;;;;;9.25;100.00;102558.06;5028516;28;20512;-90
2022/09/21 00:27:36;;;;;;;6.57;5.28;;;;;;;9.15;100.00;102557.56;5012205;28;20061;-90
2022/09/21 00:30:03;;;;;;;6.18;4.93;;;;;;;9.12;100.00;102557.69;5028829;28;20013;-91
2022/09/21 00:32:30;;;;;;;7.65;5.10;;;;;;;9.13;100.00;102555.91;5026854;28;20021;-91
2022/09/21 00:34:59;;;;;;;9.13;5.10;;;;;;;9.11;100.00;102562.06;5012105;28;20021;-90
2022/09/21 00:37:25;;;;;;;8.32;4.85;;;;;;;9.05;100.00;102561.47;5011073;28;20432;-90
2022/09/21 00:39:52;;;;;;;12.95;5.32;;;;;;;9.04;100.00;102560.63;5029577;28;20034;-91
2022/09/21 00:42:23;;;;;;;7.25;4.63;;;;;;;9.04;100.00;102565.00;5028714;28;20025;-91
2022/09/21 00:44:48;;;;;;;7.82;4.57;;;;;;;9.04;100.00;102562.38;5028849;28;20025;-91
2022/09/21 00:47:18;;;;;;;7.45;4.57;;;;;;;8.97;100.00;102563.56;5027687;28;20036;-91
2022/09/21 00:49:50;;;;;;;8.38;4.65;;;;;;;8.95;100.00;102565.38;5010757;28;20025;-91
2022/09/21 00:52:18;;;;;;;10.47;5.07;;;;;;;8.94;100.00;102559.28;5009281;28;20057;-91
2022/09/21 00:54:59;;;;;;;5.80;4.05;;;;;;;8.91;100.00;102567.28;5029768;28;20025;-90
2022/09/21 00:57:29;;;;;;;6.78;4.50;;;;;;;8.89;100.00;102560.38;5011151;28;20481;-90
2022/09/21 01:00:00;;;;;;;7.32;4.55;;;;;;;8.88;100.00;102563.94;5029017;28;20033;-90
2022/09/21 01:02:27;;;;;;;8.32;3.97;;;;;;;8.93;100.00;102557.56;5011820;28;20420;-93
2022/09/21 01:04:53;;;;;;;4.88;4.28;;;;;;;8.90;100.00;102564.72;5022035;28;20056;-90
2022/09/21 01:07:23;;;;;;;9.35;4.80;;;;;;;8.87;100.00;102556.97;4991528;28;20116;-90
2022/09/21 01:09:53;;;;;;;7.15;4.43;;;;;;;8.87;100.00;102564.84;4992595;28;20022;-92
2022/09/21 01:12:37;;;;;;;7.95;5.10;;;;;;;8.87;100.00;102556.97;4991359;28;20084;-91
2022/09/21 01:15:40;;;;;;;12.85;5.15;;;;;;;8.91;100.00;102563.81;5009674;28;20048;-90
2022/09/21 01:18:19;;;;;;;7.45;4.80;;;;;;;8.87;100.00;102562.22;5009629;28;20037;-90
2022/09/21 01:20:59;;;;;;;8.57;4.80;;;;;;;8.85;100.00;102564.03;5017493;28;20443;-90
2022/09/21 01:23:44;;;;;;;6.78;4.80;;;;;;;8.85;100.00;102564.91;5016625;28;20121;-90
2022/09/21 01:26:33;;;;;;;6.40;4.63;;;;;;;8.91;100.00;102559.41;5011087;28;20041;-91
2022/09/21 01:28:58;;;;;;;6.90;4.70;;;;;;;8.83;100.00;102560.63;5029687;28;20033;-90
2022/09/21 01:31:30;;;;;;;6.78;4.25;;;;;;;8.85;100.00;102569.28;5015208;28;20461;-90
2022/09/21 01:34:04;;;;;;;6.50;4.47;;;;;;;8.82;100.00;102559.78;5032679;28;20108;-89
2022/09/21 01:36:31;;;;;;;6.55;4.32;;;;;;;8.83;100.00;102558.00;5033220;28;20611;-90
2022/09/21 01:39:04;;;;;;;6.47;4.18;;;;;;;8.81;100.00;102557.22;5015956;28;20026;-91
2022/09/21 01:41:31;;;;;;;6.82;4.55;;;;;;;8.83;100.00;102552.75;5011188;28;20041;-92
2022/09/21 01:44:07;;;;;;;5.10;3.75;;;;;;;8.82;100.00;102553.66;5011922;28;20030;-91
2022/09/21 01:46:34;;;;;;;4.90;3.97;;;;;;;8.84;100.00;102559.72;5001822;28;20032;-91
2022/09/21 01:49:09;;;;;;;5.07;3.78;;;;;;;8.85;100.00;102554.41;5031906;28;20021;-91
2022/09/21 01:51:37;;;;;;;7.07;4.15;;;;;;;8.85;100.00;102553.53;5014327;28;20049;-92
2022/09/21 01:54:11;;;;;;;5.90;4.30;;;;;;;8.84;100.00;102557.09;5032144;28;20026;-92
2022/09/21 01:57:10;;;;;;;6.15;4.30;;;;;;;8.88;100.00;102553.44;5005580;28;20490;-90
2022/09/21 01:59:48;;;;;;;5.75;4.43;;;;;;;8.81;100.00;102554.59;5012751;28;20177;-92
2022/09/21 02:02:23;;;;;;;5.88;4.18;;;;;;;8.89;100.00;102555.13;4994054;28;20069;-92
2022/09/21 02:04:49;;;;;;;6.65;4.28;;;;;;;8.91;100.00;102558.56;5012995;28;20050;-92
2022/09/21 02:07:16;;;;;;;13.32;4.78;;;;;;;8.90;100.00;102556.84;4994366;28;20080;-92
2022/09/21 02:09:42;;;;;;;6.03;4.50;;;;;;;8.85;100.00;102559.66;5012119;28;20056;-92
2022/09/21 02:12:08;;;;;;;6.68;4.82;;;;;;;8.79;100.00;102557.25;5012031;28;20061;-92
2022/09/21 02:14:36;;;;;;;9.20;4.63;;;;;;;8.80;100.00;102558.94;5000931;28;20432;-91
2022/09/21 02:17:33;;;;;;;9.68;5.00;;;;;;;8.81;100.00;102557.22;5010545;28;20017;-92
2022/09/21 02:20:07;;;;;;;8.07;4.82;;;;;;;8.73;100.00;102555.72;5021764;28;20029;-92
2022/09/21 02:22:55;;;;;;;7.65;4.70;;;;;;;8.71;100.00;102556.69;5032332;28;20025;-92
2022/09/21 02:25:34;;;;;;;6.65;4.53;;;;;;;8.67;100.00;102555.94;5032063;28;20456;-91
2022/09/21 02:28:18;;;;;;;6.85;4.55;;;;;;;8.66;100.00;102559.50;5032328;28;20028;-91
2022/09/21 02:30:52;;;;;;;4.97;4.03;;;;;;;8.61;100.00;102560.59;5015731;28;20036;-91
2022/09/21 02:33:34;;;;;;;5.93;4.10;;;;;;;8.63;100.00;102557.00;5009510;28;20071;-91
2022/09/21 02:36:29;;;;;;;5.50;4.25;;;;;;;8.61;100.00;102556.19;5012581;28;20110;-91
2022/09/21 02:39:16;;;;;;;6.57;4.22;;;;;;;8.52;100.00;102558.31;5010536;28;20431;-92
2022/09/21 02:42:09;;;;;;;5.05;4.28;;;;;;;8.50;100.00;102553.13;4993509;28;20164;-91
2022/09/21 02:44:41;;;;;;;6.95;4.05;;;;;;;8.40;100.00;102551.75;4993241;28;20091;-92
2022/09/21 02:47:20;;;;;;;4.85;4.05;;;;;;;8.35;100.00;102553.69;5023303;28;20083;-92
2022/09/21 02:49:51;;;;;;;7.20;4.40;;;;;;;8.34;100.00;102551.97;5021667;28;20033;-91
2022/09/21 02:52:17;;;;;;;5.88;4.40;;;;;;;8.32;100.00;102548.53;5010795;28;20613;-91
2022/09/21 02:54:47;;;;;;;7.55;4.18;;;;;;;8.28;100.00;102554.81;5017542;28;20029;-91
2022/09/21 02:57:15;;;;;;;5.07;4.38;;;;;;;8.23;100.00;102551.50;5030850;28;20066;-91
2022/09/21 02:59:41;;;;;;;6.22;4.32;;;;;;;8.21;100.00;102550.69;5030746;28;20029;-91
2022/09/21 03:02:11;;;;;;;4.38;3.95;;;;;;;8.15;100.00;102544.78;5013066;28;20021;-91
2022/09/21 03:04:39;;;;;;;11.85;4.60;;;;;;;8.23;100.00;102552.34;5029957;28;20469;-91
2022/09/21 03:07:04;;;;;;;10.15;4.50;;;;;;;8.23;100.00;102554.13;5017027;28;20030;-91
2022/09/21 03:09:29;;;;;;;6.53;4.70;;;;;;;8.22;100.00;102560.28;4993114;28;20451;-91
2022/09/21 03:11:58;;;;;;;9.27;4.55;;;;;;;8.16;100.00;102564.84;5009978;28;20095;-90
2022/09/21 03:14:24;;;;;;;8.02;4.63;;;;;;;8.12;100.00;102552.75;5009402;28;20033;-91
2022/09/21 03:16:49;;;;;;;8.07;4.43;;;;;;;8.11;100.00;102550.19;5011162;28;20485;-91
2022/09/21 03:19:14;;;;;;;7.45;4.60;;;;;;;8.13;100.00;102554.47;4996070;28;20026;-91
2022/09/21 03:21:40;;;;;;;7.05;4.30;;;;;;;8.10;100.00;102558.97;5016721;28;20563;-91
2022/09/21 03:24:06;;;;;;;6.80;4.50;;;;;;;8.06;100.00;102558.22;5010956;28;20226;-91
2022/09/21 03:26:31;;;;;;;5.43;4.20;;;;;;;8.02;100.00;102561.88;5009877;28;20128;-91
2022/09/21 03:28:57;;;;;;;6.65;4.35;;;;;;;8.01;100.00;102565.41;5013199;28;20036;-91
2022/09/21 03:31:23;;;;;;;6.13;4.18;;;;;;;7.96;100.00;102564.69;5030698;28;20025;-91
2022/09/21 03:33:48;;;;;;;7.68;4.40;;;;;;;7.96;100.00;102558.56;5012708;28;20030;-90
2022/09/21 03:36:14;;;;;;;6.30;4.20;;;;;;;7.91;100.00;102557.88;5012404;28;20044;-90
2022/09/21 03:38:39;;;;;;;8.95;4.60;;;;;;;7.90;100.00;102559.66;5030539;28;20039;-91
2022/09/21 03:41:05;;;;;;;8.65;4.28;;;;;;;7.81;100.00;102558.22;5010175;28;20041;-90
2022/09/21 03:43:31;;;;;;;7.47;3.90;;;;;;;7.80;100.00;102571.38;5021709;28;20099;-90
2022/09/21 03:45:56;;;;;;;6.43;4.25;;;;;;;7.74;100.00;102566.34;5012880;28;20021;-90
2022/09/21 03:48:22;;;;;;;6.57;4.10;;;;;;;7.75;100.00;102568.06;5029342;28;20025;-90
2022/09/21 03:50:47;;;;;;;5.25;3.90;;;;;;;7.71;100.00;102566.47;5012445;28;20026;-90
2022/09/21 03:53:13;;;;;;;8.07;4.35;;;;;;;7.68;100.00;102579.66;5011699;28;20025;-90
2022/09/21 03:55:39;;;;;;;6.90;4.10;;;;;;;7.66;100.00;102574.47;5029411;28;20040;-90
2022/09/21 03:58:05;;;;;;;5.60;3.90;;;;;;;7.65;100.00;102571.91;5012051;28;20029;-90
2022/09/21 04:00:34;;;;;;;5.68;3.63;;;;;;;7.66;100.00;102573.63;5009054;28;20429;-90
2022/09/21 04:03:00;;;;;;;10.57;3.80;;;;;;;7.62;100.00;102567.63;5009859;28;20021;-91
2022/09/21 04:05:26;;;;;;;4.32;3.63;;;;;;;7.61;100.00;102575.53;5027092;28;20152;-90
2022/09/21 04:07:54;;;;;;;5.45;3.78;;;;;;;7.67;100.00;102580.56;5012293;28;20040;-90
2022/09/21 04:10:25;;;;;;;7.35;3.92;;;;;;;7.62;100.00;102577.25;5028365;28;20076;-91
2022/09/21 04:12:50;;;;;;;5.55;3.90;;;;;;;7.59;100.00;102577.34;5009208;28;20026;-91
2022/09/21 04:15:22;;;;;;;6.18;3.75;;;;;;;7.57;100.00;102573.91;5009584;28;20057;-91
2022/09/21 04:17:50;;;;;;;6.03;3.88;;;;;;;7.57;100.00;102571.28;5010189;28;20481;-91
2022/09/21 04:20:15;;;;;;;9.02;3.78;;;;;;;7.58;100.00;102575.63;5006878;28;20033;-91
2022/09/21 04:22:40;;;;;;;7.50;3.80;;;;;;;7.53;100.00;102568.78;5011254;28;20417;-91
2022/09/21 04:25:06;;;;;;;4.63;3.45;;;;;;;7.53;100.00;102570.53;5029853;28;20040;-90
2022/09/21 04:27:32;;;;;;;6.15;3.92;;;;;;;7.52;100.00;102576.69;5012209;28;20021;-91
2022/09/21 04:29:58;;;;;;;4.20;3.60;;;;;;;7.48;100.00;102568.06;5018651;28;20541;-91
2022/09/21 04:32:23;;;;;;;6.63;3.67;;;;;;;7.46;100.00;102583.00;5009945;28;20030;-90
2022/09/21 04:34:49;;;;;;;6.40;3.72;;;;;;;7.47;100.00;102569.00;5010480;28;20030;-90
2022/09/21 04:37:14;;;;;;;6.22;4.28;;;;;;;7.41;100.00;102571.81;5017859;28;20502;-91
2022/09/21 04:39:40;;;;;;;4.97;3.80;;;;;;;7.41;100.00;102578.81;5029507;28;20036;-91
2022/09/21 04:42:06;;;;;;;4.13;3.72;;;;;;;7.37;100.00;102578.06;5012207;28;20482;-91
2022/09/21 04:44:34;;;;;;;6.85;4.20;;;;;;;7.34;100.00;102574.69;5011256;28;20033;-91
2022/09/21 04:46:59;;;;;;;5.43;3.55;;;;;;;7.33;100.00;102581.69;5028814;28;20036;-90
2022/09/21 04:49:25;;;;;;;6.03;4.07;;;;;;;7.35;100.00;102579.88;5012270;28;20403;-90
2022/09/21 04:51:50;;;;;;;6.57;4.00;;;;;;;7.43;100.00;102592.72;5009613;28;20691;-91
2022/09/21 04:54:17;;;;;;;6.35;4.40;;;;;;;7.35;100.00;102586.88;5015872;28;20045;-90
2022/09/21 04:56:42;;;;;;;8.23;4.40;;;;;;;7.33;100.00;102586.94;5030913;28;20544;-90
2022/09/21 04:59:08;;;;;;;4.50;4.03;;;;;;;7.37;100.00;102588.53;5011409;28;20049;-90
2022/09/21 05:01:33;;;;;;;5.53;4.10;;;;;;;7.31;100.00;102583.50;5029212;28;20126;-90
2022/09/21 05:04:01;;;;;;;5.93;4.15;;;;;;;7.33;100.00;102581.69;5031250;28;20101;-90
2022/09/21 05:06:31;;;;;;;7.82;4.00;;;;;;;7.31;100.00;102586.13;5017210;28;20039;-89
2022/09/21 05:11:42;;;;;;;5.72;3.83;;;;;;;7.32;100.00;102579.97;5035314;28;20045;-89
2022/09/21 05:14:07;;;;;;;6.30;3.83;;;;;;;7.26;100.00;102584.56;5035540;28;20025;-90
2022/09/21 05:16:33;;;;;;;4.45;4.00;;;;;;;7.25;100.00;102594.19;5035408;28;20057;-90
2022/09/21 05:18:59;;;;;;;9.48;4.05;;;;;;;7.28;100.00;102588.84;5034894;28;20034;-89
2022/09/21 05:21:24;;;;;;;4.53;3.70;;;;;;;7.22;100.00;102595.13;5025372;28;20041;-89
2022/09/21 05:23:50;;;;;;;8.65;4.38;;;;;;;7.28;100.00;102598.47;4998464;28;20034;-89
2022/09/21 05:26:15;;;;;;;5.30;3.95;;;;;;;7.28;100.00;102593.22;5026042;28;20120;-89
2022/09/21 05:28:41;;;;;;;6.10;4.30;;;;;;;7.28;100.00;102594.06;5034781;28;20521;-89
2022/09/21 05:31:19;;;;;;;4.70;4.18;;;;;;;7.28;100.00;102599.31;5035076;28;20021;-90
2022/09/21 05:33:51;;;;;;;8.15;4.22;;;;;;;7.24;100.00;102600.31;5017445;28;20049;-90
2022/09/21 05:37:02;;;;;;;9.00;4.25;;;;;;;7.29;100.00;102601.03;5035105;28;20025;-89
2022/09/21 05:39:28;;;;;;;5.00;4.10;;;;;;;7.20;100.00;102602.19;4969250;28;20045;-89
2022/09/21 05:41:54;;;;;;;9.38;4.68;;;;;;;7.23;100.00;102609.94;5015464;28;20109;-89
2022/09/21 05:44:20;;;;;;;9.52;4.38;;;;;;;7.22;100.00;102610.84;5015516;28;20028;-89
2022/09/21 05:47:03;;;;;;;9.80;4.60;;;;;;;7.22;100.00;102615.22;5031676;28;20393;-89
2022/09/21 05:49:35;;;;;;;;;;;;;;;7.39;100.00;102622.53;5032440;28;20057;-89
2022/09/21 05:52:26;;;;;;;8.65;4.82;;;;;;;7.31;100.00;102614.91;5014989;28;19927;-89
2022/09/21 05:55:24;;;;;;;11.80;5.15;;;;;;;7.33;100.00;102612.25;5013715;28;20042;-89
2022/09/21 05:58:00;;;;;;;14.70;5.63;;;;;;;7.34;100.00;102620.06;5015883;28;20029;-89
2022/09/21 06:00:35;;;;;;;9.40;5.00;;;;;;;7.38;100.00;102628.66;5020849;28;20025;-87
2022/09/21 06:03:29;;;;;;;9.50;5.05;;;;;;;7.46;100.00;102622.28;5034571;28;20481;-87
2022/09/21 06:05:56;;;;;;;8.38;4.20;;;;;;;7.39;100.00;102633.84;5011460;28;20075;-87
2022/09/21 06:08:23;;;;;;;9.50;5.10;;;;;;;7.43;100.00;102621.53;5031054;28;20045;-87
2022/09/21 06:10:48;;;;;;;5.03;4.53;;;;;;;7.41;100.00;102624.19;5014769;28;20358;-88
2022/09/21 06:13:14;;;;;;;8.77;4.80;;;;;;;7.44;100.00;102631.09;5034531;28;20025;-88
2022/09/21 06:15:39;;;;;;;6.35;4.53;;;;;;;7.42;100.00;102628.50;5032641;28;20045;-87
2022/09/21 06:18:06;;;;;;;7.35;4.53;;;;;;;7.49;100.00;102624.78;5013256;28;20021;-88
2022/09/21 06:20:35;;;;;;;5.32;4.55;;;;;;;7.48;100.00;102630.94;5026474;28;20068;-88
2022/09/21 06:23:06;;;;;;;7.60;4.82;;;;;;;7.54;100.00;102633.34;5003993;28;20025;-87
2022/09/21 06:25:34;;;;;;;9.38;5.55;;;;;;;7.59;100.00;102632.34;5023198;28;20028;-87
2022/09/21 06:28:05;;;;;;;9.00;5.97;;;;;;;7.61;100.00;102638.41;5004252;28;20692;-88
2022/09/21 06:30:33;;;;;;;9.77;6.40;;;;;;;7.63;100.00;102637.47;5003005;28;20021;-87
2022/09/21 06:33:00;;;;;;;11.90;6.93;;;;;;;7.70;100.00;102632.88;5022413;28;20021;-87
2022/09/21 06:35:26;;;;;;;14.00;8.70;;;;;;;7.77;100.00;102637.00;5004684;28;20558;-88
2022/09/21 06:37:51;;;;;;;17.13;12.18;;;;;;;7.97;100.00;102626.66;5002330;28;20478;-87
2022/09/21 06:40:17;;;;;;;19.77;14.48;;;;;;;8.09;100.00;102628.88;5021975;28;20035;-88
2022/09/21 06:42:42;;;;;;;26.50;15.73;;;;;;;8.23;100.00;102631.00;5024862;28;20018;-88
2022/09/21 06:45:08;;;;;;;21.00;16.20;;;;;;;8.39;100.00;102634.81;5028804;28;20108;-88
2022/09/21 06:47:33;;;;;;;23.40;16.25;;;;;;;8.49;100.00;102624.88;5011915;28;20041;-87
2022/09/21 06:49:58;;;;;;;22.33;16.38;;;;;;;8.63;100.00;102627.84;5028483;28;20540;-87
2022/09/21 06:52:24;;;;;;;20.75;15.57;;;;;;;8.76;100.00;102634.31;5030992;28;20025;-88
2022/09/21 06:54:49;;;;;;;24.88;16.65;;;;;;;8.91;100.00;102627.66;5032000;28;20026;-88
2022/09/21 06:57:15;;;;;;;23.75;13.38;;;;;;;9.05;100.00;102629.75;5013006;28;20305;-88
2022/09/21 06:59:40;;;;;;;21.88;12.57;;;;;;;9.18;100.00;102628.34;5013925;28;20056;-88
2022/09/21 07:02:07;;;;;;;19.23;11.68;;;;;;;9.32;100.00;102631.28;5031450;28;20025;-89
2022/09/21 07:04:32;;;;;;;23.40;11.20;;;;;;;9.47;100.00;102639.44;5013082;28;20121;-88
2022/09/21 07:06:58;;;;;;;15.48;11.52;;;;;;;9.64;100.00;102639.63;5013551;28;20053;-90
2022/09/21 07:09:23;;;;;;;15.13;11.02;;;;;;;9.83;100.00;102629.19;5013713;28;20390;-89
2022/09/21 07:11:49;;;;;;;15.05;9.30;;;;;;;10.02;100.00;102633.63;5013041;28;20111;-90
2022/09/21 07:14:14;;;;;;;15.07;9.68;;;;;;;10.25;100.00;102631.78;5031121;28;20022;-91
2022/09/21 07:16:39;;;;;;;13.52;8.88;;;;;;;10.46;100.00;102636.13;5031776;28;20041;-91
2022/09/21 07:19:05;;;;;;;12.88;9.30;;;;;;;10.66;100.00;102628.16;5022261;28;20437;-90
2022/09/21 07:21:30;;;;;;;13.18;9.18;;;;;;;10.84;99.86;102631.75;4993415;28;20124;-90
2022/09/21 07:23:58;;;;;;;13.63;8.15;;;;;;;11.00;97.20;102631.88;5011104;28;20026;-90
2022/09/21 07:26:23;;;;;;;12.57;7.80;;;;;;;11.14;96.64;102634.69;5010876;28;20026;-90
2022/09/21 07:28:49;;;;;;;10.07;7.80;;;;;;;11.34;96.55;102635.53;4993668;28;20026;-89
2022/09/21 07:31:15;;;;;;;11.98;7.32;;;;;;;11.47;94.25;102639.25;4993087;28;20021;-89
2022/09/21 07:33:42;;;;;;;13.77;7.72;;;;;;;11.67;93.80;102627.75;5010599;28;20080;-92
2022/09/21 07:36:12;;;;;;;17.75;7.85;;;;;;;11.83;93.38;102628.72;5010674;28;20072;-86
2022/09/21 07:38:40;;;;;;;13.65;6.93;;;;;;;11.89;92.05;102629.25;5010288;28;20064;-85
2022/09/21 07:41:11;;;;;;;10.48;7.05;;;;;;;12.12;90.62;102619.31;5008777;28;20030;-85
2022/09/21 07:43:40;;;;;;;12.98;7.13;;;;;;;12.24;91.16;102619.50;4993535;28;20466;-85
2022/09/21 07:46:08;;;;;;;13.77;7.20;;;;;;;12.46;91.00;102621.88;4993064;28;20036;-85
2022/09/21 07:48:33;;;;;;;10.73;6.13;;;;;;;12.60;88.38;102626.41;5010151;28;20474;-85
2022/09/21 07:51:10;;;;;;;13.55;5.80;;;;;;;12.71;87.84;102620.53;5010877;28;20144;-85
2022/09/21 07:53:37;;;;;;;11.23;5.57;;;;;;;12.86;85.08;102625.00;5010013;28;20394;-85
2022/09/21 07:56:05;;;;;;;10.40;5.95;;;;;;;12.96;84.21;102622.69;5010684;28;20024;-85
2022/09/21 08:01:16;;;;;;;9.55;5.28;;;;;;;13.21;82.73;102624.81;4989950;28;20315;-85
2022/09/21 08:03:41;;;;;;;10.40;5.45;;;;;;;13.32;81.19;102619.81;4973575;28;20030;-85
2022/09/21 08:06:08;;;;;;;11.63;5.00;;;;;;;13.40;80.47;102617.56;4990606;28;20037;-84
2022/09/21 08:08:33;;;;;;;9.88;4.82;;;;;;;13.47;80.45;102613.63;4972968;28;20104;-85
2022/09/21 08:11:03;;;;;;;8.90;4.40;;;;;;;13.63;78.14;102619.75;4989720;28;20050;-85
2022/09/21 08:13:29;;;;;;;9.85;3.97;;;;;;;13.74;77.44;102606.72;4977158;28;20041;-85
2022/09/21 08:16:03;;;;;;;7.28;3.80;;;;;;;13.92;76.00;102610.06;4983427;28;20620;-85
2022/09/21 08:18:29;;;;;;;9.18;3.60;;;;;;;14.00;75.35;102606.94;5005955;28;20029;-85
2022/09/21 08:20:56;;;;;;;6.72;3.83;;;;;;;14.19;76.48;102607.56;5005350;28;20030;-86
2022/09/21 08:23:22;;;;;;;8.13;3.38;;;;;;;14.34;75.00;102614.56;5008239;28;20034;-86
2022/09/21 08:25:47;;;;;;;7.40;3.13;;;;;;;14.54;72.21;102609.88;5009531;28;20105;-86
2022/09/21 08:28:13;;;;;;;7.47;2.65;;;;;;;14.72;71.85;102617.50;5010075;28;20060;-87
2022/09/21 08:30:39;;;;;;;5.13;2.45;;;;;;;14.83;69.55;102618.63;5008561;28;20049;-86
2022/09/21 08:33:05;;;;;;;9.90;2.67;;;;;;;15.03;69.74;102615.56;5003161;28;20030;-87
2022/09/21 08:35:35;;;;;;;5.75;2.03;;;;;;;15.25;68.99;102620.31;4988608;28;20026;-87
2022/09/21 08:38:00;;;;;;;5.63;2.40;;;;;;;15.41;68.05;102621.00;4990864;28;20053;-87
2022/09/21 08:40:25;;;;;;;9.73;2.20;;;;;;;15.57;68.04;102615.53;4990028;28;20057;-86
2022/09/21 08:42:59;;;;;;;6.25;1.95;;;;;;;15.71;67.07;102614.66;4990102;28;20814;-86
2022/09/21 08:45:32;;;;;;;4.65;2.20;;;;;;;15.90;66.49;102617.75;4989078;28;20507;-86
2022/09/21 08:48:01;;;;;;;7.47;1.92;;;;;;;15.99;64.97;102611.81;5008993;28;20025;-85
2022/09/21 08:50:42;;;;;;;6.13;2.17;;;;;;;16.04;63.82;102620.31;5005450;28;20019;-86
2022/09/21 08:53:27;;;;;;;6.35;1.63;;;;;;;16.16;65.16;102613.31;4989445;28;20018;-86
2022/09/21 08:55:55;;;;;;;8.43;2.00;;;;;;;16.24;62.76;102611.81;4990813;28;20030;-86
2022/09/21 08:58:26;;;;;;;4.80;1.73;;;;;;;16.28;61.94;102615.94;4987953;28;20062;-86
2022/09/21 09:01:27;;;;;;;6.13;1.77;;;;;;;16.42;63.13;102619.47;4990351;28;20034;-87
2022/09/21 09:04:17;;;;;;;7.07;1.42;;;;;;;16.68;63.75;102623.81;4981269;28;20066;-86
2022/09/21 09:06:57;;;;;;;5.30;1.38;;;;;;;16.61;59.81;102622.50;4993021;28;20034;-86
2022/09/21 09:09:39;;;;;;;5.80;1.75;;;;;;;16.66;62.41;102623.06;4988902;28;20404;-86
2022/09/21 09:12:13;;;;;;;10.75;1.67;;;;;;;16.94;61.15;102621.09;4989230;28;20054;-86
2022/09/21 09:15:02;;;;;;;9.60;1.77;;;;;;;16.92;61.77;102627.38;4993577;28;20129;-87
2022/09/21 09:18:12;;;;;;;5.10;1.42;;;;;;;17.01;61.82;102627.66;4991978;28;20479;-86
2022/09/21 09:20:48;;;;;;;6.40;1.80;;;;;;;17.17;59.31;102628.22;5000736;28;20081;-86
2022/09/21 09:23:24;;;;;;;3.05;0.90;;;;;;;17.03;59.81;102626.59;5010013;28;20065;-85
2022/09/21 09:26:00;;;;;;;5.40;1.40;;;;;;;17.14;57.46;102633.78;5028978;28;20030;-85
2022/09/21 09:28:28;;;;;;;4.63;1.20;;;;;;;17.21;58.33;102624.38;5029181;28;20038;-86
2022/09/21 09:30:59;;;;;;;6.18;1.20;;;;;;;17.32;56.69;102627.13;5029602;28;20492;-86
2022/09/21 09:33:29;;;;;;;6.20;1.52;;;;;;;17.11;57.07;102629.53;5010619;28;20034;-85
2022/09/21 09:36:02;;;;;;;6.78;1.42;;;;;;;17.24;57.74;102632.16;5011996;28;20061;-85
2022/09/21 09:38:34;;;;;;;4.10;1.27;;;;;;;17.42;57.50;102622.81;5011815;28;20026;-87
2022/09/21 09:41:15;;;;;;;7.85;1.42;;;;;;;17.43;56.71;102623.66;5012907;28;20034;-86
2022/09/21 09:44:11;;;;;;;5.93;1.10;;;;;;;17.54;59.98;102627.19;5009965;28;20034;-87
2022/09/21 09:47:13;;;;;;;6.32;1.25;;;;;;;17.64;58.25;102626.53;4998871;28;20481;-86
2022/09/21 09:49:53;;;;;;;8.02;1.80;;;;;;;17.77;55.84;102622.84;5011988;28;20124;-86
2022/09/21 09:52:18;;;;;;;6.28;1.35;;;;;;;17.37;54.05;102624.97;5032715;28;20401;-85
2022/09/21 09:54:44;;;;;;;4.18;1.48;;;;;;;17.44;56.44;102631.50;5032836;28;20022;-86
2022/09/21 09:57:12;;;;;;;6.22;2.28;;;;;;;17.39;56.84;102623.03;5022687;28;20037;-85
2022/09/21 09:59:43;;;;;;;5.60;1.70;;;;;;;17.50;56.88;102628.38;5013378;28;20022;-85
2022/09/21 10:02:22;;;;;;;11.07;1.98;;;;;;;17.71;57.60;102625.13;4994802;28;20022;-85
2022/09/21 10:05:05;;;;;;;4.53;1.55;;;;;;;17.79;57.21;102620.91;4995785;28;20022;-85
2022/09/21 10:07:33;;;;;;;;;;;;;;;18.14;58.28;102623.53;5011566;28;20038;-84
2022/09/21 10:09:58;;;;;;;5.78;1.35;;;;;;;17.70;54.38;102628.75;5013166;28;19913;-85
2022/09/21 10:12:26;;;;;;;8.38;1.48;;;;;;;17.64;55.86;102626.53;4995142;28;20021;-85
2022/09/21 10:14:59;;;;;;;4.95;1.30;;;;;;;17.24;55.40;102626.84;5017276;28;20045;-85
2022/09/21 10:17:25;;;;;;;5.25;1.58;;;;;;;16.87;54.50;102620.69;5012435;28;20437;-86
2022/09/21 10:20:01;;;;;;;6.68;1.60;;;;;;;16.78;57.01;102622.19;5018571;28;20018;-85
2022/09/21 10:22:28;;;;;;;7.20;1.33;;;;;;;16.76;56.16;102623.25;5013679;28;20036;-86
2022/09/21 10:24:55;;;;;;;4.97;1.15;;;;;;;16.91;52.77;102623.00;5014633;28;20024;-85
2022/09/21 10:27:28;;;;;;;5.47;0.98;;;;;;;16.89;51.32;102619.63;5013899;28;20504;-85
2022/09/21 10:29:54;;;;;;;2.85;0.90;;;;;;;16.84;51.07;102619.09;5027244;28;20048;-85
2022/09/21 10:32:21;;;;;;;4.05;1.35;;;;;;;16.92;56.21;102622.06;5011526;28;20065;-85
2022/09/21 10:35:03;;;;;;;3.33;1.30;;;;;;;17.01;58.52;102617.03;4994718;28;20026;-85
2022/09/21 10:37:40;;;;;;;6.13;1.40;;;;;;;17.08;56.56;102615.59;5012098;28;20034;-85
2022/09/21 10:40:22;;;;;;;7.22;2.17;;;;;;;17.49;59.08;102613.38;4994569;28;20289;-85
2022/09/21 10:42:50;;;;;;;5.88;1.92;;;;;;;17.73;57.28;102604.56;5012965;28;20058;-85
2022/09/21 10:45:18;;;;;;;7.72;2.10;;;;;;;17.93;56.84;102606.53;5011754;28;20057;-84
2022/09/21 10:47:53;;;;;;;6.22;1.80;;;;;;;18.12;56.29;102596.16;5016740;28;20038;-84
2022/09/21 10:50:49;;;;;;;5.65;1.70;;;;;;;18.37;57.48;102596.88;5029047;28;20022;-85
2022/09/21 10:53:28;;;;;;;7.70;2.00;;;;;;;18.21;53.53;102596.41;5031313;28;20474;-84
2022/09/21 10:56:02;;;;;;;5.03;1.60;;;;;;;18.19;54.24;102596.53;5014400;28;20017;-84
2022/09/21 10:58:28;;;;;;;7.57;1.90;;;;;;;18.15;54.27;102595.91;5013354;28;20025;-84
2022/09/21 11:01:08;;;;;;;4.97;1.30;;;;;;;18.13;52.63;102597.00;5031804;28;20112;-84
2022/09/21 11:03:48;;;;;;;8.77;2.28;;;;;;;18.29;53.62;102596.63;5029231;28;20036;-85
2022/09/21 11:06:36;;;;;;;5.70;1.42;;;;;;;18.53;54.33;102594.72;5013401;28;20014;-84
2022/09/21 11:09:08;;;;;;;5.35;1.13;;;;;;;18.46;52.98;102597.03;5027587;28;20025;-85
2022/09/21 11:11:52;;;;;;;5.18;1.10;;;;;;;18.50;51.95;102594.97;5010994;28;20026;-85
2022/09/21 11:14:42;;;;;;;4.50;1.30;;;;;;;18.06;50.75;102596.63;5027738;28;20029;-84
2022/09/21 11:17:13;;;;;;;5.10;1.30;;;;;;;17.99;51.38;102600.72;5030076;28;20033;-84
2022/09/21 11:19:50;;;;;;;4.50;1.10;;;;;;;18.01;51.40;102585.50;5028329;28;20032;-84
2022/09/21 11:22:39;;;;;;;5.43;1.00;;;;;;;17.91;50.79;102595.16;5012820;28;20368;-85
2022/09/21 11:25:30;;;;;;;3.53;1.10;;;;;;;17.97;52.70;102594.66;4999981;28;20021;-85
2022/09/21 11:28:12;;;;;;;5.47;0.88;;;;;;;18.18;49.28;102594.81;5013118;28;20029;-85
2022/09/21 11:30:55;;;;;;;4.50;1.00;;;;;;;18.30;50.00;102593.84;5031325;28;20014;-84
2022/09/21 11:33:32;;;;;;;6.13;1.20;;;;;;;18.02;50.57;102587.19;5029746;28;20037;-84
2022/09/21 11:36:21;;;;;;;4.35;1.00;;;;;;;17.72;50.55;102586.88;5031080;28;20453;-84
2022/09/21 11:39:02;;;;;;;5.45;1.70;;;;;;;17.34;51.79;102598.56;5000232;28;20049;-84
2022/09/21 11:41:57;;;;;;;5.47;1.17;;;;;;;17.01;53.29;102590.44;5013128;28;20029;-84
2022/09/21 11:44:47;;;;;;;6.35;1.08;;;;;;;16.71;52.58;102586.38;5013029;28;20055;-84
2022/09/21 11:47:44;;;;;;;4.68;1.35;;;;;;;16.58;53.80;102589.03;5011677;28;20477;-84
2022/09/21 11:50:39;;;;;;;3.45;1.05;;;;;;;16.63;55.04;102579.88;5030083;28;20037;-85